Time;durP1;ratioP1;P1;durP2;ratioP2;P2;SDS_P1;SDS_P2;PMS_P1;PMS_P2;Temp;Humidity;BMP_temperature;BMP_pressure;BME280_temperature;BME280_humidity;BME280_pressure;Samples;Min_cycle;Max_cycle;Signal;HPM_P1;HPM_P2
2021/05/24 00:02:21;;;;;;;3.67;1.38;;;11.00;94.90;;;;;;4976047;28;20042;-81
2021/05/24 00:04:48;;;;;;;3.50;1.40;;;11.00;94.80;;;;;;4976090;28;20086;-80
2021/05/24 00:07:15;;;;;;;3.92;1.20;;;11.00;94.40;;;;;;4976267;28;20499;-80
2021/05/24 00:09:41;;;;;;;3.17;1.20;;;10.90;94.30;;;;;;4976033;28;20086;-79
2021/05/24 00:12:10;;;;;;;3.97;1.30;;;10.70;94.00;;;;;;4975891;28;20461;-80
2021/05/24 00:14:38;;;;;;;4.25;1.52;;;10.60;94.30;;;;;;4975826;28;20078;-80
2021/05/24 00:17:05;;;;;;;2.67;1.10;;;10.50;94.70;;;;;;4975843;28;20051;-80
2021/05/24 00:19:32;;;;;;;3.50;1.17;;;10.50;94.90;;;;;;4975536;28;20077;-80
2021/05/24 00:21:59;;;;;;;2.45;1.00;;;10.50;95.00;;;;;;4975618;28;20135;-80
2021/05/24 00:24:25;;;;;;;3.45;1.20;;;10.30;95.00;;;;;;4975899;28;20070;-79
2021/05/24 00:26:52;;;;;;;3.30;1.35;;;10.40;95.20;;;;;;4975591;28;20139;-80
2021/05/24 00:29:20;;;;;;;5.05;1.20;;;10.30;94.80;;;;;;4975687;28;20135;-82
2021/05/24 00:31:47;;;;;;;3.50;1.08;;;10.30;95.00;;;;;;4975569;28;20405;-81
2021/05/24 00:34:15;;;;;;;2.92;1.02;;;10.30;95.10;;;;;;4975014;28;20054;-81
2021/05/24 00:36:42;;;;;;;2.83;1.13;;;10.30;95.30;;;;;;4958178;28;20082;-81
2021/05/24 00:39:09;;;;;;;2.22;1.00;;;10.30;95.30;;;;;;4975604;28;20082;-81
2021/05/24 00:41:38;;;;;;;3.80;1.17;;;10.30;95.40;;;;;;4975511;28;20137;-81
2021/05/24 00:44:07;;;;;;;4.13;1.30;;;10.30;95.30;;;;;;4975116;28;20081;-81
2021/05/24 00:46:35;;;;;;;3.78;1.27;;;10.30;95.30;;;;;;4975346;28;20043;-80
2021/05/24 00:49:02;;;;;;;4.28;1.60;;;10.30;95.40;;;;;;4975136;28;20078;-80
2021/05/24 00:51:30;;;;;;;3.00;1.20;;;10.30;95.30;;;;;;4975335;28;20125;-80
2021/05/24 00:53:57;;;;;;;4.95;1.38;;;10.30;95.40;;;;;;4974925;28;20093;-80
2021/05/24 00:56:24;;;;;;;2.70;1.17;;;10.20;95.20;;;;;;4960042;28;20147;-80
2021/05/24 00:58:51;;;;;;;3.63;1.30;;;10.20;94.80;;;;;;4975548;28;20134;-80
2021/05/24 01:01:18;;;;;;;3.00;1.33;;;10.10;95.00;;;;;;4974932;28;20078;-80
2021/05/24 01:03:46;;;;;;;2.80;1.30;;;9.90;95.10;;;;;;4975004;28;20706;-80
2021/05/24 01:06:13;;;;;;;2.90;1.15;;;9.90;95.40;;;;;;4974946;28;20078;-79
2021/05/24 01:08:40;;;;;;;3.13;1.40;;;9.80;95.50;;;;;;4974401;28;20075;-80
2021/05/24 01:11:06;;;;;;;2.72;1.20;;;9.80;95.70;;;;;;4975228;28;20125;-80
2021/05/24 01:13:34;;;;;;;2.92;1.40;;;9.80;95.80;;;;;;4974874;28;20105;-80
2021/05/24 01:16:01;;;;;;;2.70;1.20;;;9.80;95.90;;;;;;4974360;28;20051;-80
2021/05/24 01:18:28;;;;;;;3.78;1.40;;;9.80;96.00;;;;;;4974920;28;20050;-80
2021/05/24 01:20:56;;;;;;;2.83;1.35;;;9.80;96.00;;;;;;4974581;28;20114;-80
2021/05/24 01:23:27;;;;;;;3.78;1.63;;;9.80;96.10;;;;;;4974812;28;20125;-80
2021/05/24 01:25:54;;;;;;;4.97;1.73;;;9.90;96.40;;;;;;4974600;28;20070;-80
2021/05/24 01:28:21;;;;;;;4.30;1.40;;;9.90;96.00;;;;;;4957259;28;20463;-80
2021/05/24 01:30:49;;;;;;;5.47;1.50;;;9.80;96.20;;;;;;4974490;28;20472;-80
2021/05/24 01:33:17;;;;;;;3.00;1.40;;;9.80;96.60;;;;;;4974515;28;20492;-80
2021/05/24 01:35:44;;;;;;;3.00;1.48;;;9.80;96.30;;;;;;4974575;28;20057;-81
2021/05/24 01:38:12;;;;;;;5.28;1.70;;;9.80;96.00;;;;;;4972862;28;20564;-81
2021/05/24 01:40:43;;;;;;;2.97;1.50;;;9.80;96.20;;;;;;4973839;28;20141;-81
2021/05/24 01:43:09;;;;;;;4.47;1.55;;;9.80;96.10;;;;;;4974428;28;20050;-81
2021/05/24 01:45:38;;;;;;;3.10;1.20;;;9.80;96.10;;;;;;4973358;28;20089;-81
2021/05/24 01:48:06;;;;;;;3.85;1.25;;;9.60;96.50;;;;;;4974223;28;20054;-79
2021/05/24 01:50:34;;;;;;;2.78;1.30;;;9.80;96.30;;;;;;4974359;28;20563;-80
2021/05/24 01:53:00;;;;;;;3.85;1.40;;;9.70;96.40;;;;;;4974520;28;20078;-80
2021/05/24 01:55:27;;;;;;;3.67;1.20;;;9.70;96.30;;;;;;4974226;28;20054;-80
2021/05/24 01:57:55;;;;;;;3.20;1.30;;;9.70;96.00;;;;;;4974423;28;20477;-80
2021/05/24 02:00:25;;;;;;;4.00;1.40;;;9.60;95.80;;;;;;4974084;28;20082;-80
2021/05/24 02:02:55;;;;;;;4.25;1.30;;;9.60;95.60;;;;;;4974158;28;20511;-80
2021/05/24 02:05:23;;;;;;;3.13;1.30;;;9.40;95.70;;;;;;4974148;28;20085;-81
2021/05/24 02:07:52;;;;;;;3.55;1.30;;;9.40;96.10;;;;;;4974171;28;20138;-80
2021/05/24 02:10:24;;;;;;;3.17;1.30;;;9.30;96.30;;;;;;4980380;28;20074;-82
2021/05/24 02:12:52;;;;;;;4.07;1.40;;;9.30;96.50;;;;;;4982070;28;20085;-81
2021/05/24 02:15:23;;;;;;;6.10;1.77;;;9.30;96.80;;;;;;4978155;28;20086;-80
2021/05/24 02:17:50;;;;;;;4.10;1.40;;;9.20;96.80;;;;;;4974089;28;20130;-80
2021/05/24 02:20:19;;;;;;;4.05;1.70;;;9.20;96.90;;;;;;4972341;28;20189;-80
2021/05/24 02:22:46;;;;;;;4.65;1.60;;;9.30;97.30;;;;;;4964243;28;20045;-80
2021/05/24 02:25:14;;;;;;;5.38;1.90;;;9.30;97.20;;;;;;4978641;28;20077;-81
2021/05/24 02:27:40;;;;;;;3.47;1.92;;;9.20;97.30;;;;;;4974867;28;20074;-81
2021/05/24 02:30:09;;;;;;;4.13;1.60;;;9.30;97.40;;;;;;4973994;28;20086;-80
2021/05/24 02:32:36;;;;;;;3.00;1.67;;;9.10;97.30;;;;;;4973780;28;20089;-80
2021/05/24 02:35:04;;;;;;;3.60;1.40;;;9.10;97.50;;;;;;4973810;28;20511;-79
2021/05/24 02:37:31;;;;;;;2.60;1.20;;;9.10;97.40;;;;;;4973840;28;20120;-80
2021/05/24 02:39:58;;;;;;;3.15;1.80;;;9.10;97.50;;;;;;4973586;28;20134;-81
2021/05/24 02:42:25;;;;;;;4.07;1.40;;;9.20;97.50;;;;;;4973875;28;20116;-81
2021/05/24 02:44:51;;;;;;;3.03;1.65;;;9.20;97.40;;;;;;4973714;28;20109;-81
2021/05/24 02:47:18;;;;;;;3.35;1.30;;;9.10;97.00;;;;;;4973656;28;20150;-81
2021/05/24 02:49:45;;;;;;;2.70;1.23;;;9.10;96.90;;;;;;4973717;28;20079;-80
2021/05/24 02:52:13;;;;;;;3.20;1.30;;;9.20;97.30;;;;;;4974932;28;20129;-80
2021/05/24 02:54:40;;;;;;;3.55;1.60;;;9.20;97.50;;;;;;4977161;28;20503;-80
2021/05/24 02:57:07;;;;;;;3.47;1.30;;;9.20;97.40;;;;;;4977285;28;20078;-80
2021/05/24 02:59:34;;;;;;;3.60;1.48;;;9.30;97.30;;;;;;4977424;28;20130;-81
2021/05/24 03:02:02;;;;;;;4.70;1.58;;;9.30;97.20;;;;;;4977182;28;20074;-80
2021/05/24 03:04:29;;;;;;;3.70;1.40;;;9.30;97.20;;;;;;4977423;28;20058;-80
2021/05/24 03:06:57;;;;;;;3.25;1.50;;;9.30;97.10;;;;;;4977369;28;20437;-80
2021/05/24 03:09:24;;;;;;;3.78;1.63;;;9.40;97.10;;;;;;4977301;28;20078;-80
2021/05/24 03:11:52;;;;;;;3.10;1.60;;;9.30;97.00;;;;;;4977281;28;20086;-80
2021/05/24 03:14:18;;;;;;;2.80;1.40;;;9.40;97.00;;;;;;4977041;28;20129;-81
2021/05/24 03:16:45;;;;;;;3.40;1.40;;;9.30;96.90;;;;;;4976832;28;20489;-80
2021/05/24 03:19:11;;;;;;;2.95;1.40;;;9.40;96.90;;;;;;4977268;28;20071;-82
2021/05/24 03:21:38;;;;;;;3.08;1.35;;;9.20;97.00;;;;;;4976937;28;20130;-81
2021/05/24 03:24:08;;;;;;;2.72;1.25;;;9.30;97.00;;;;;;4976903;28;20051;-80
2021/05/24 03:26:35;;;;;;;3.33;1.50;;;9.30;97.20;;;;;;4959399;28;20109;-80
2021/05/24 03:29:02;;;;;;;4.07;1.83;;;9.30;97.00;;;;;;4976951;28;20075;-80
2021/05/24 03:31:29;;;;;;;3.38;1.35;;;9.30;96.70;;;;;;4959789;28;20054;-79
2021/05/24 03:33:56;;;;;;;3.15;1.38;;;9.20;96.80;;;;;;4976764;28;20078;-79
2021/05/24 03:36:22;;;;;;;3.10;1.60;;;9.10;97.10;;;;;;4976546;28;20086;-80
2021/05/24 03:38:49;;;;;;;4.75;1.60;;;9.10;96.80;;;;;;4976816;28;20055;-80
2021/05/24 03:41:17;;;;;;;4.20;1.95;;;9.10;97.10;;;;;;4976517;28;20081;-80
2021/05/24 03:43:46;;;;;;;3.90;1.85;;;9.00;97.00;;;;;;4976751;28;20051;-79
2021/05/24 03:46:13;;;;;;;4.60;1.42;;;8.90;97.20;;;;;;4976307;28;20117;-81
2021/05/24 03:48:40;;;;;;;2.70;1.30;;;8.90;97.50;;;;;;4976786;28;20475;-81
2021/05/24 03:51:09;;;;;;;3.00;1.30;;;8.90;97.70;;;;;;4976734;28;20086;-81
2021/05/24 03:53:36;;;;;;;3.33;1.65;;;8.80;97.80;;;;;;4976698;28;20074;-81
2021/05/24 03:56:03;;;;;;;3.03;1.50;;;8.80;97.60;;;;;;4976310;28;20059;-82
2021/05/24 03:58:31;;;;;;;3.85;1.50;;;8.80;97.70;;;;;;4976430;28;20130;-81
2021/05/24 04:00:58;;;;;;;3.47;1.80;;;8.80;97.70;;;;;;4984607;28;20082;-81
2021/05/24 04:03:25;;;;;;;4.22;1.80;;;8.80;97.70;;;;;;4986151;28;20078;-82
2021/05/24 04:05:58;;;;;;;4.65;1.80;;;8.80;97.70;;;;;;4986418;28;20066;-80
2021/05/24 04:08:29;;;;;;;3.08;1.50;;;8.70;97.90;;;;;;4971411;28;20405;-81
2021/05/24 04:10:58;;;;;;;3.90;1.50;;;8.80;98.00;;;;;;4986644;28;20057;-81
2021/05/24 04:13:24;;;;;;;3.22;1.77;;;8.80;98.00;;;;;;4985792;28;20089;-81
2021/05/24 04:15:54;;;;;;;2.63;1.30;;;8.80;98.10;;;;;;4984147;28;20047;-80
2021/05/24 04:18:22;;;;;;;3.05;1.45;;;8.80;98.20;;;;;;4976179;28;20090;-82
2021/05/24 04:20:49;;;;;;;3.47;1.48;;;8.90;98.30;;;;;;4975741;28;20415;-85
2021/05/24 04:23:16;;;;;;;3.15;1.60;;;8.90;98.40;;;;;;4975998;28;20097;-86
2021/05/24 04:25:43;;;;;;;4.38;1.63;;;8.90;98.30;;;;;;4976423;28;20082;-86
2021/05/24 04:28:10;;;;;;;2.65;1.35;;;9.10;98.10;;;;;;4975755;28;20081;-85
2021/05/24 04:30:37;;;;;;;3.50;1.58;;;9.10;98.10;;;;;;4976806;28;20078;-85
2021/05/24 04:33:05;;;;;;;4.32;1.60;;;9.10;97.90;;;;;;4975789;28;20137;-84
2021/05/24 04:35:32;;;;;;;3.33;1.40;;;9.20;97.90;;;;;;4958298;28;20122;-82
2021/05/24 04:37:58;;;;;;;3.65;1.40;;;9.20;97.90;;;;;;4975157;28;20112;-81
2021/05/24 04:40:25;;;;;;;3.30;1.58;;;9.20;98.10;;;;;;4958398;28;20126;-81
2021/05/24 04:42:53;;;;;;;4.88;1.50;;;9.20;97.70;;;;;;4958726;28;20078;-83
2021/05/24 04:45:20;;;;;;;4.22;1.70;;;9.20;97.60;;;;;;5006919;23;20046;-79
2021/05/24 04:47:47;;;;;;;3.83;1.80;;;9.10;97.60;;;;;;4955040;28;20082;-80
2021/05/24 04:50:14;;;;;;;3.28;1.60;;;9.00;97.60;;;;;;4975002;28;20078;-80
2021/05/24 04:52:43;;;;;;;3.20;1.60;;;9.00;97.60;;;;;;4975640;28;20043;-78
2021/05/24 04:55:12;;;;;;;3.75;1.42;;;9.00;97.80;;;;;;4981440;28;20054;-79
2021/05/24 04:57:38;;;;;;;4.05;1.52;;;9.00;98.10;;;;;;4970796;28;20110;-79
2021/05/24 05:00:09;;;;;;;3.10;1.48;;;9.00;98.10;;;;;;4964620;28;20382;-77
2021/05/24 05:02:36;;;;;;;3.90;1.50;;;9.00;98.20;;;;;;4974511;28;20105;-79
2021/05/24 05:05:05;;;;;;;2.95;1.40;;;9.10;98.50;;;;;;5030926;23;20075;-79
2021/05/24 05:07:32;;;;;;;3.50;1.63;;;9.10;98.20;;;;;;4973257;28;20054;-81
2021/05/24 05:10:00;;;;;;;3.63;1.55;;;9.20;98.40;;;;;;4969633;28;20079;-78
2021/05/24 05:12:27;;;;;;;3.95;1.50;;;9.20;98.00;;;;;;4975055;28;20567;-79
2021/05/24 05:14:55;;;;;;;3.83;1.58;;;9.20;97.90;;;;;;4994133;28;20061;-78
2021/05/24 05:17:22;;;;;;;4.15;2.00;;;9.20;98.30;;;;;;4994752;28;20089;-78
2021/05/24 05:19:49;;;;;;;3.53;1.60;;;9.20;98.00;;;;;;4978801;28;20126;-76
2021/05/24 05:22:16;;;;;;;2.92;1.30;;;9.10;98.10;;;;;;4975581;28;20042;-78
2021/05/24 05:24:43;;;;;;;2.85;1.30;;;9.10;98.40;;;;;;4985083;28;20077;-77
2021/05/24 05:27:10;;;;;;;3.88;1.80;;;9.00;98.50;;;;;;4984139;28;20097;-77
2021/05/24 05:29:36;;;;;;;5.18;1.52;;;9.20;98.50;;;;;;4966416;28;20078;-78
2021/05/24 05:32:03;;;;;;;2.75;1.40;;;9.20;98.60;;;;;;4975149;28;20465;-79
2021/05/24 05:34:30;;;;;;;3.83;1.70;;;9.30;98.70;;;;;;4975206;28;20109;-76
2021/05/24 05:36:57;;;;;;;3.50;1.60;;;9.40;98.70;;;;;;4974203;28;20055;-79
2021/05/24 05:39:23;;;;;;;3.30;1.60;;;9.50;98.50;;;;;;4974103;28;20070;-79
2021/05/24 05:41:51;;;;;;;4.63;1.60;;;9.50;98.50;;;;;;4975270;28;20404;-80
2021/05/24 05:44:17;;;;;;;3.10;1.77;;;9.50;98.30;;;;;;4973284;28;20457;-79
2021/05/24 05:46:44;;;;;;;4.93;1.75;;;9.60;98.00;;;;;;4972958;28;20141;-79
2021/05/24 05:49:11;;;;;;;5.13;2.00;;;9.50;97.90;;;;;;4974355;28;20085;-79
2021/05/24 05:51:38;;;;;;;3.85;1.80;;;9.60;98.00;;;;;;4974215;28;20139;-79
2021/05/24 05:54:05;;;;;;;3.42;1.63;;;9.50;98.00;;;;;;4974430;28;20058;-78
2021/05/24 05:56:32;;;;;;;4.05;1.52;;;9.50;98.10;;;;;;4974470;28;20133;-78
2021/05/24 05:59:00;;;;;;;3.38;1.90;;;9.60;98.20;;;;;;4973995;28;20173;-79
2021/05/24 06:01:28;;;;;;;3.80;2.05;;;9.70;97.90;;;;;;4974677;28;20218;-78
2021/05/24 06:03:55;;;;;;;3.88;2.00;;;9.60;97.90;;;;;;4973979;28;20058;-79
2021/05/24 06:06:21;;;;;;;5.00;1.92;;;9.60;98.00;;;;;;4974701;28;20467;-80
2021/05/24 06:08:48;;;;;;;4.03;2.03;;;9.60;98.20;;;;;;4969248;28;20255;-79
2021/05/24 06:11:14;;;;;;;5.40;1.95;;;9.70;98.50;;;;;;4974554;28;20089;-79
2021/05/24 06:13:41;;;;;;;3.85;2.00;;;9.80;98.40;;;;;;4973768;28;20074;-78
2021/05/24 06:16:08;;;;;;;4.65;1.90;;;9.70;98.40;;;;;;4974678;28;20082;-78
2021/05/24 06:18:35;;;;;;;3.60;1.85;;;9.80;98.50;;;;;;4975038;28;20097;-80
2021/05/24 06:21:02;;;;;;;3.85;2.00;;;9.90;98.60;;;;;;4960974;28;20090;-78
2021/05/24 06:23:28;;;;;;;4.47;1.90;;;9.90;98.30;;;;;;4970900;28;20067;-79
2021/05/24 06:25:55;;;;;;;5.38;2.13;;;9.90;98.60;;;;;;4974094;28;20639;-78
2021/05/24 06:28:21;;;;;;;5.32;2.03;;;10.00;98.40;;;;;;4981976;28;20130;-77
2021/05/24 06:30:48;;;;;;;4.32;2.00;;;10.00;98.50;;;;;;4977538;28;20085;-79
2021/05/24 06:33:16;;;;;;;3.00;1.70;;;10.10;98.60;;;;;;4978160;28;20134;-77
2021/05/24 06:35:42;;;;;;;3.53;1.70;;;10.20;98.60;;;;;;4978953;28;20507;-76
2021/05/24 06:38:09;;;;;;;3.65;1.98;;;10.40;98.40;;;;;;4978903;28;20090;-78
2021/05/24 06:40:36;;;;;;;3.85;1.83;;;10.40;98.30;;;;;;4979306;28;20074;-78
2021/05/24 06:43:03;;;;;;;3.97;1.80;;;10.60;98.00;;;;;;4979733;28;20047;-77
2021/05/24 06:45:29;;;;;;;3.83;1.70;;;10.70;97.80;;;;;;4978740;28;20055;-78
2021/05/24 06:47:56;;;;;;;4.18;2.50;;;10.80;97.70;;;;;;4977981;28;20074;-79
2021/05/24 06:50:23;;;;;;;3.35;1.80;;;10.80;97.80;;;;;;4977435;28;20082;-80
2021/05/24 06:52:50;;;;;;;4.45;1.80;;;10.90;97.20;;;;;;4978958;28;20047;-79
2021/05/24 06:55:17;;;;;;;4.95;1.90;;;11.00;96.90;;;;;;4978655;28;20138;-77
2021/05/24 06:57:43;;;;;;;4.90;1.92;;;11.10;96.50;;;;;;4976684;28;20081;-78
2021/05/24 07:00:12;;;;;;;3.95;1.95;;;11.10;96.60;;;;;;4976222;28;20151;-79
2021/05/24 07:02:39;;;;;;;4.95;1.70;;;11.10;95.80;;;;;;4977072;28;20539;-77
2021/05/24 07:05:07;;;;;;;3.67;1.80;;;11.10;96.10;;;;;;4975289;28;20149;-77
2021/05/24 07:07:36;;;;;;;4.55;1.70;;;11.20;96.20;;;;;;4979598;28;20089;-77
2021/05/24 07:10:03;;;;;;;3.60;1.77;;;11.40;96.10;;;;;;4977484;28;20047;-79
2021/05/24 07:12:30;;;;;;;4.85;1.90;;;11.50;95.50;;;;;;4978369;28;20462;-79
2021/05/24 07:14:56;;;;;;;3.38;1.52;;;11.60;94.90;;;;;;4978109;28;20507;-79
2021/05/24 07:17:23;;;;;;;5.60;1.80;;;11.60;94.70;;;;;;4977593;28;20129;-79
2021/05/24 07:19:50;;;;;;;3.00;1.38;;;11.70;94.50;;;;;;4960760;28;20086;-78
2021/05/24 07:22:17;;;;;;;5.55;1.70;;;11.80;94.40;;;;;;4977496;28;20101;-78
2021/05/24 07:24:45;;;;;;;3.53;1.50;;;11.90;94.40;;;;;;4977681;28;20077;-77
2021/05/24 07:27:12;;;;;;;3.88;1.42;;;12.00;93.90;;;;;;4977543;28;20058;-78
2021/05/24 07:29:38;;;;;;;3.40;1.42;;;12.10;93.80;;;;;;4977525;28;20129;-77
2021/05/24 07:32:10;;;;;;;3.75;1.65;;;12.20;94.00;;;;;;4977726;28;20058;-77
2021/05/24 07:34:37;;;;;;;2.97;1.30;;;12.30;93.70;;;;;;4971824;28;20047;-78
2021/05/24 07:37:04;;;;;;;4.38;1.58;;;12.50;93.70;;;;;;4976707;28;20137;-77
2021/05/24 07:39:30;;;;;;;3.53;1.55;;;12.60;93.30;;;;;;4977262;28;20452;-78
2021/05/24 07:42:00;;;;;;;4.82;1.58;;;12.70;92.50;;;;;;4977722;28;20054;-78
2021/05/24 07:44:27;;;;;;;4.28;1.40;;;12.90;92.20;;;;;;4976784;28;20053;-78
2021/05/24 07:46:54;;;;;;;4.00;1.80;;;13.00;92.70;;;;;;4977842;28;20127;-77
2021/05/24 07:49:21;;;;;;;3.83;1.50;;;13.10;92.90;;;;;;4977226;28;20075;-77
2021/05/24 07:51:49;;;;;;;3.25;1.50;;;13.20;93.00;;;;;;4966822;28;20058;-80
2021/05/24 07:54:16;;;;;;;4.00;1.52;;;13.30;93.20;;;;;;4975498;28;20133;-79
2021/05/24 07:56:43;;;;;;;2.60;1.25;;;13.40;93.20;;;;;;4975612;28;20130;-79
2021/05/24 07:59:11;;;;;;;5.18;1.50;;;13.50;93.60;;;;;;4976014;28;20057;-78
2021/05/24 08:01:37;;;;;;;3.25;1.17;;;13.60;93.10;;;;;;4976490;28;20117;-78
2021/05/24 08:04:05;;;;;;;3.88;1.58;;;13.70;92.30;;;;;;4977612;28;20090;-79
2021/05/24 08:06:32;;;;;;;2.80;1.05;;;13.90;92.20;;;;;;4973666;28;20098;-77
2021/05/24 08:08:59;;;;;;;2.70;1.10;;;14.00;92.30;;;;;;4980410;28;20106;-78
2021/05/24 08:11:26;;;;;;;3.90;1.38;;;14.10;92.20;;;;;;4977145;28;20078;-78
2021/05/24 08:13:54;;;;;;;2.53;1.10;;;14.30;91.70;;;;;;4982191;28;20050;-78
2021/05/24 08:16:22;;;;;;;3.25;1.20;;;14.40;90.60;;;;;;4979800;28;20404;-78
2021/05/24 08:18:50;;;;;;;2.55;0.98;;;14.40;89.60;;;;;;4976491;28;20615;-78
2021/05/24 08:21:18;;;;;;;3.55;1.00;;;14.50;88.00;;;;;;4978953;28;20129;-79
2021/05/24 08:23:45;;;;;;;2.40;0.88;;;14.60;85.70;;;;;;4982610;28;20066;-77
2021/05/24 08:26:13;;;;;;;2.53;0.90;;;14.60;86.40;;;;;;4979875;28;20078;-80
2021/05/24 08:28:41;;;;;;;3.72;1.00;;;14.60;84.90;;;;;;4964826;28;20492;-79
2021/05/24 08:31:08;;;;;;;2.95;0.98;;;14.60;85.20;;;;;;4959230;28;20050;-79
2021/05/24 08:33:36;;;;;;;3.20;1.00;;;14.60;86.40;;;;;;4974980;28;20511;-77
2021/05/24 08:36:03;;;;;;;2.92;0.88;;;14.70;86.30;;;;;;4976377;28;20082;-76
2021/05/24 08:38:31;;;;;;;2.67;1.00;;;14.80;84.90;;;;;;4969401;28;20070;-78
2021/05/24 08:41:01;;;;;;;2.40;1.05;;;14.90;85.40;;;;;;4978620;28;20082;-80
2021/05/24 08:43:28;;;;;;;2.38;1.05;;;14.90;85.20;;;;;;4978919;28;20043;-78
2021/05/24 08:46:00;;;;;;;3.78;1.10;;;15.00;85.10;;;;;;4975826;28;20051;-80
2021/05/24 08:48:27;;;;;;;2.92;1.00;;;15.10;84.40;;;;;;4960443;28;20046;-78
2021/05/24 08:50:55;;;;;;;2.38;1.10;;;15.30;83.00;;;;;;4977799;28;20078;-80
2021/05/24 08:53:22;;;;;;;2.30;0.90;;;15.30;81.90;;;;;;4977048;28;20572;-80
2021/05/24 08:55:48;;;;;;;2.05;0.90;;;15.30;81.30;;;;;;4977937;28;20132;-80
2021/05/24 08:58:16;;;;;;;2.17;0.90;;;15.30;81.50;;;;;;4976645;28;20113;-78
2021/05/24 09:00:43;;;;;;;3.42;1.30;;;15.40;82.40;;;;;;4976440;28;20174;-78
2021/05/24 09:03:17;;;;;;;2.75;1.00;;;15.50;82.90;;;;;;4976713;28;20054;-81
2021/05/24 09:05:45;;;;;;;3.45;1.00;;;15.60;82.40;;;;;;4980996;28;20047;-78
2021/05/24 09:08:14;;;;;;;3.22;1.20;;;15.70;82.40;;;;;;4978528;28;20050;-79
2021/05/24 09:10:43;;;;;;;3.22;1.30;;;15.80;83.80;;;;;;4977800;28;20480;-77
2021/05/24 09:13:13;;;;;;;3.63;1.08;;;15.80;84.40;;;;;;4978817;28;20070;-76
2021/05/24 09:15:43;;;;;;;3.33;1.23;;;15.90;83.40;;;;;;4968906;28;20492;-76
2021/05/24 09:18:10;;;;;;;2.28;1.10;;;16.00;83.10;;;;;;4959118;28;20055;-78
2021/05/24 09:20:39;;;;;;;3.00;1.10;;;16.00;83.00;;;;;;4978767;28;20051;-80
2021/05/24 09:23:10;;;;;;;3.22;1.00;;;16.10;83.10;;;;;;4974912;28;20175;-79
2021/05/24 09:26:04;;;;;;;2.25;0.93;;;16.10;82.20;;;;;;4975956;28;20503;-78
2021/05/24 09:28:40;;;;;;;2.45;0.95;;;16.20;83.30;;;;;;4954924;28;20047;-80
2021/05/24 09:31:11;;;;;;;2.78;1.00;;;16.30;83.50;;;;;;4958190;28;20047;-80
2021/05/24 09:33:42;;;;;;;3.30;0.93;;;16.40;83.60;;;;;;4974872;28;20047;-80
2021/05/24 09:36:10;;;;;;;2.58;1.00;;;16.40;82.70;;;;;;4975198;28;20066;-78
2021/05/24 09:38:40;;;;;;;2.40;0.90;;;16.50;81.50;;;;;;4957672;28;20105;-77
2021/05/24 09:41:10;;;;;;;2.88;1.02;;;16.50;81.20;;;;;;4974931;28;20156;-77
2021/05/24 09:43:39;;;;;;;2.28;0.90;;;16.50;80.90;;;;;;4969161;28;20051;-78
2021/05/24 09:46:24;;;;;;;2.28;0.90;;;16.60;81.50;;;;;;4975133;28;20082;-79
2021/05/24 09:48:53;;;;;;;2.88;0.95;;;16.60;80.90;;;;;;4975678;28;20401;-79
2021/05/24 09:51:22;;;;;;;2.63;0.95;;;16.60;80.90;;;;;;4975733;28;20464;-78
2021/05/24 09:54:01;;;;;;;2.58;1.00;;;16.70;81.60;;;;;;4976230;28;20575;-78
2021/05/24 09:56:32;;;;;;;2.38;0.90;;;16.80;81.00;;;;;;4974985;28;20062;-80
2021/05/24 09:59:04;;;;;;;3.33;1.10;;;16.80;80.80;;;;;;4974136;28;20046;-79
2021/05/24 10:01:36;;;;;;;2.80;0.90;;;16.90;80.30;;;;;;4955647;28;20488;-79
2021/05/24 10:04:04;;;;;;;3.05;0.90;;;16.90;80.40;;;;;;4976518;28;20057;-79
2021/05/24 10:06:30;;;;;;;4.45;1.00;;;17.00;80.30;;;;;;4975894;28;20471;-79
2021/05/24 10:08:57;;;;;;;2.42;1.00;;;17.00;81.20;;;;;;4975842;28;20074;-80
2021/05/24 10:11:24;;;;;;;2.17;0.93;;;17.10;80.30;;;;;;4975183;28;20456;-79
2021/05/24 10:13:52;;;;;;;2.35;1.02;;;17.20;79.60;;;;;;4975063;28;20093;-80
2021/05/24 10:16:20;;;;;;;2.33;0.90;;;17.20;79.80;;;;;;4975942;28;20073;-79
2021/05/24 10:18:47;;;;;;;2.72;1.05;;;17.20;80.00;;;;;;4976203;28;20048;-79
2021/05/24 10:21:14;;;;;;;2.30;0.90;;;17.30;80.60;;;;;;4976567;28;20412;-78
2021/05/24 10:23:40;;;;;;;4.93;1.63;;;17.30;81.80;;;;;;4976950;28;20086;-79
2021/05/24 10:26:11;;;;;;;3.30;1.20;;;17.40;82.30;;;;;;4977844;28;20078;-79
2021/05/24 10:28:39;;;;;;;2.50;1.00;;;17.40;82.20;;;;;;4975364;28;20058;-80
2021/05/24 10:31:19;;;;;;;6.97;3.70;;;17.60;82.40;;;;;;4974717;28;20090;-79
2021/05/24 10:33:49;;;;;;;7.30;3.50;;;17.70;83.30;;;;;;4974660;28;20094;-80
2021/05/24 10:36:25;;;;;;;4.80;1.80;;;17.70;83.30;;;;;;4974552;28;20484;-78
2021/05/24 10:39:05;;;;;;;3.97;1.10;;;17.70;82.80;;;;;;4974294;28;20086;-78
2021/05/24 10:41:56;;;;;;;2.97;1.30;;;17.80;81.80;;;;;;4974841;28;20083;-79
2021/05/24 10:44:25;;;;;;;3.00;1.00;;;17.80;81.30;;;;;;4974866;28;20109;-80
2021/05/24 10:46:53;;;;;;;3.47;0.90;;;17.80;81.90;;;;;;4974532;28;20419;-78
2021/05/24 10:49:24;;;;;;;3.55;0.98;;;17.80;82.90;;;;;;4974860;28;20061;-78
2021/05/24 10:52:03;;;;;;;2.47;0.70;;;17.80;81.70;;;;;;4974862;28;20136;-77
2021/05/24 10:54:36;;;;;;;2.25;0.90;;;17.90;81.80;;;;;;4974127;28;20074;-77
2021/05/24 10:57:18;;;;;;;2.67;1.00;;;18.00;82.10;;;;;;4975018;28;20113;-79
2021/05/24 11:00:13;;;;;;;2.35;1.05;;;18.10;82.00;;;;;;4974923;28;20093;-77
2021/05/24 11:02:41;;;;;;;2.35;1.00;;;18.10;81.30;;;;;;4974707;28;20493;-78
2021/05/24 11:05:30;;;;;;;2.10;0.90;;;18.10;80.90;;;;;;4974377;28;20142;-78
2021/05/24 11:08:02;;;;;;;2.42;1.02;;;18.20;81.40;;;;;;4971748;28;20078;-77
2021/05/24 11:10:45;;;;;;;3.40;1.00;;;18.20;81.20;;;;;;4974652;28;20480;-78
2021/05/24 11:13:28;;;;;;;3.15;1.17;;;18.20;81.40;;;;;;4975500;28;20054;-80
2021/05/24 11:16:12;;;;;;;3.00;1.20;;;18.30;81.80;;;;;;4976383;28;20053;-77
2021/05/24 11:18:43;;;;;;;2.90;1.30;;;18.40;81.90;;;;;;4970653;28;20051;-78
2021/05/24 11:21:26;;;;;;;4.53;1.30;;;18.50;81.40;;;;;;4976925;28;20039;-76
2021/05/24 11:26:37;;;;;;;2.65;1.23;;;18.80;81.50;;;;;;4970521;28;20113;-79
2021/05/24 11:29:14;;;;;;;2.67;0.90;;;18.80;79.50;;;;;;4976292;28;20061;-79
2021/05/24 11:31:47;;;;;;;2.92;1.00;;;19.00;80.00;;;;;;4970125;28;20098;-76
2021/05/24 11:34:34;;;;;;;2.53;1.00;;;19.00;78.80;;;;;;4973494;28;20461;-77
2021/05/24 11:37:04;;;;;;;2.90;1.00;;;19.10;79.10;;;;;;4973514;28;20059;-77
2021/05/24 11:39:37;;;;;;;3.33;1.00;;;19.10;79.10;;;;;;4965871;28;20130;-78
2021/05/24 11:42:07;;;;;;;2.60;1.17;;;19.10;80.60;;;;;;4972518;28;20082;-78
2021/05/24 11:44:36;;;;;;;2.13;0.98;;;19.10;80.20;;;;;;4966709;28;20129;-78
2021/05/24 11:47:07;;;;;;;3.35;1.27;;;19.10;80.90;;;;;;4973754;28;20122;-79
2021/05/24 11:49:37;;;;;;;2.92;1.10;;;19.30;78.80;;;;;;4953171;28;20043;-80
2021/05/24 11:52:07;;;;;;;2.70;1.00;;;19.30;78.50;;;;;;4972960;28;20058;-79
2021/05/24 11:54:34;;;;;;;1.92;0.80;;;19.30;79.20;;;;;;4964042;28;20054;-79
2021/05/24 11:57:03;;;;;;;2.60;0.93;;;19.30;78.10;;;;;;4971916;28;20134;-78
2021/05/24 11:59:32;;;;;;;3.42;0.90;;;19.30;79.00;;;;;;4965152;28;20070;-80
2021/05/24 12:02:00;;;;;;;2.75;1.00;;;19.40;79.80;;;;;;4969558;28;20043;-78
2021/05/24 12:04:31;;;;;;;2.28;0.90;;;19.40;80.70;;;;;;4972432;28;20466;-79
2021/05/24 12:07:03;;;;;;;2.25;0.80;;;19.40;80.00;;;;;;4975722;28;20110;-77
2021/05/24 12:09:39;;;;;;;3.22;0.98;;;19.30;79.40;;;;;;4979483;28;20050;-78
2021/05/24 12:12:09;;;;;;;2.50;0.90;;;19.30;78.90;;;;;;4975663;28;20058;-80
2021/05/24 12:14:37;;;;;;;2.50;1.00;;;19.40;78.40;;;;;;4976183;28;20054;-78
2021/05/24 12:17:13;;;;;;;8.23;4.63;;;19.50;78.60;;;;;;4976089;28;20150;-78
2021/05/24 12:19:41;;;;;;;6.43;3.10;;;19.50;79.20;;;;;;4969455;28;20079;-78
2021/05/24 12:22:12;;;;;;;5.32;2.35;;;19.50;79.10;;;;;;4975911;28;20130;-79
2021/05/24 12:24:41;;;;;;;3.83;1.50;;;19.50;79.30;;;;;;4975727;28;20047;-79
2021/05/24 12:27:10;;;;;;;2.65;1.00;;;19.50;79.00;;;;;;4958591;28;20061;-78
2021/05/24 12:30:07;;;;;;;2.10;0.90;;;19.50;78.50;;;;;;4959064;28;20081;-80
2021/05/24 12:32:37;;;;;;;1.65;0.82;;;19.40;78.80;;;;;;4975639;28;20055;-79
2021/05/24 12:35:08;;;;;;;6.85;3.30;;;19.30;78.80;;;;;;4975801;28;20082;-77
2021/05/24 12:37:36;;;;;;;8.80;3.58;;;19.20;79.70;;;;;;4952205;28;20476;-77
2021/05/24 12:40:05;;;;;;;6.57;3.58;;;19.20;80.20;;;;;;4958922;28;20515;-78
2021/05/24 12:42:32;;;;;;;6.88;3.00;;;19.10;80.40;;;;;;4968792;28;20043;-77
2021/05/24 12:45:01;;;;;;;8.82;4.18;;;19.10;80.20;;;;;;4973507;28;20050;-76
2021/05/24 12:47:28;;;;;;;5.57;2.40;;;19.10;80.00;;;;;;4968988;28;20043;-77
2021/05/24 12:49:55;;;;;;;4.78;1.80;;;19.10;79.40;;;;;;4976147;28;20067;-78
2021/05/24 12:52:21;;;;;;;2.92;1.30;;;19.20;79.60;;;;;;4975513;28;20078;-79
2021/05/24 12:54:51;;;;;;;3.05;1.30;;;19.20;80.50;;;;;;4975269;28;20122;-79
2021/05/24 12:57:30;;;;;;;3.35;1.05;;;19.20;81.30;;;;;;4976741;28;20074;-79
2021/05/24 12:59:58;;;;;;;2.80;1.10;;;19.20;81.30;;;;;;4974105;28;20046;-78
2021/05/24 13:02:27;;;;;;;3.85;1.08;;;19.30;81.40;;;;;;4974463;28;20074;-80